Time;durP1;ratioP1;P1;durP2;ratioP2;P2;SDS_P1;SDS_P2;PMS_P1;PMS_P2;Temp;Humidity;BMP_temperature;BMP_pressure;BME280_temperature;BME280_humidity;BME280_pressure;Samples;Min_cycle;Max_cycle;Signal;HPM_P1;HPM_P2
2022/06/18 00:02:18;;;;;;;2.40;2.20;;;22.80;59.60;;;;;;5048183;28;20053;-60
2022/06/18 00:04:45;;;;;;;2.33;2.22;;;22.80;59.60;;;;;;5048259;28;20079;-60
2022/06/18 00:07:15;;;;;;;2.45;2.25;;;22.80;59.60;;;;;;5050189;28;20037;-59
2022/06/18 00:09:43;;;;;;;3.28;2.47;;;22.80;59.70;;;;;;5049861;28;20048;-59
2022/06/18 00:15:13;;;;;;;2.97;2.30;;;22.80;59.60;;;;;;5046361;28;20080;-60
2022/06/18 00:17:39;;;;;;;2.65;2.45;;;22.80;59.60;;;;;;5049638;28;20720;-60
2022/06/18 00:20:05;;;;;;;2.63;2.40;;;22.80;59.60;;;;;;5054266;28;20037;-58
2022/06/18 00:22:31;;;;;;;2.30;2.10;;;22.80;59.60;;;;;;5049836;28;20148;-58
2022/06/18 00:24:56;;;;;;;2.40;2.20;;;22.80;59.50;;;;;;5050866;28;20044;-60
2022/06/18 00:27:22;;;;;;;2.63;2.42;;;22.80;59.50;;;;;;5052833;28;20336;-59
2022/06/18 00:29:50;;;;;;;2.63;2.30;;;22.80;59.50;;;;;;5051469;28;20926;-60
2022/06/18 00:32:16;;;;;;;2.13;2.00;;;22.80;59.50;;;;;;5052040;28;20048;-58
2022/06/18 00:34:42;;;;;;;2.53;2.22;;;22.80;59.60;;;;;;5052659;28;20373;-60
2022/06/18 00:37:14;;;;;;;2.33;2.13;;;22.80;59.50;;;;;;5053097;28;20118;-58
2022/06/18 00:39:39;;;;;;;2.60;2.40;;;22.80;59.50;;;;;;5052845;28;20060;-57
2022/06/18 00:42:13;;;;;;;2.55;2.30;;;22.80;59.50;;;;;;5053694;28;20041;-57
2022/06/18 00:44:41;;;;;;;2.63;2.42;;;22.80;59.50;;;;;;5053562;28;20170;-58
2022/06/18 00:47:21;;;;;;;2.72;2.53;;;22.80;59.50;;;;;;5053149;28;20132;-58
2022/06/18 00:50:00;;;;;;;2.28;1.98;;;22.80;59.50;;;;;;5049255;28;20208;-57
2022/06/18 00:52:40;;;;;;;2.38;2.28;;;22.80;59.40;;;;;;5050740;28;20044;-57
2022/06/18 00:55:09;;;;;;;;;;;22.80;59.50;;;;;;5052864;28;20036;-57
2022/06/18 00:57:42;;;;;;;2.60;2.40;;;22.80;59.40;;;;;;5037231;28;19920;-58
2022/06/18 01:00:15;;;;;;;2.70;2.50;;;22.80;59.60;;;;;;5049514;28;20044;-57
2022/06/18 01:02:44;;;;;;;2.63;2.42;;;22.80;59.50;;;;;;5049561;28;20641;-59
2022/06/18 01:05:17;;;;;;;2.30;2.10;;;22.80;59.50;;;;;;5051832;28;20944;-56
2022/06/18 01:07:46;;;;;;;2.60;2.40;;;22.80;59.50;;;;;;5055221;28;20044;-58
2022/06/18 01:10:31;;;;;;;3.35;2.20;;;22.80;59.50;;;;;;5051105;28;20048;-56
2022/06/18 01:13:00;;;;;;;2.35;2.15;;;22.80;59.40;;;;;;5050338;28;20110;-57
2022/06/18 01:15:27;;;;;;;2.15;2.05;;;22.70;59.40;;;;;;5049330;28;20814;-59
2022/06/18 01:17:54;;;;;;;2.28;2.10;;;22.70;59.40;;;;;;5050974;28;20086;-57
2022/06/18 01:20:21;;;;;;;2.70;2.08;;;22.80;59.60;;;;;;5050273;28;20044;-61
2022/06/18 01:22:53;;;;;;;2.35;2.25;;;22.80;59.40;;;;;;5052755;28;20119;-58
2022/06/18 01:25:21;;;;;;;2.40;2.20;;;22.80;59.40;;;;;;5046050;28;20055;-58
2022/06/18 01:27:47;;;;;;;2.50;2.30;;;22.80;59.40;;;;;;5052762;28;20117;-59
2022/06/18 01:30:17;;;;;;;2.25;2.05;;;22.80;60.00;;;;;;5053213;28;20036;-59
2022/06/18 01:32:45;;;;;;;2.43;2.13;;;22.80;59.40;;;;;;5049816;28;20037;-58
2022/06/18 01:35:12;;;;;;;2.90;2.00;;;22.80;60.10;;;;;;5053629;28;20124;-57
2022/06/18 01:37:38;;;;;;;2.38;2.17;;;22.80;59.40;;;;;;5051453;28;20515;-59
2022/06/18 01:40:09;;;;;;;2.35;2.17;;;22.80;59.40;;;;;;5052226;28;20180;-58
2022/06/18 01:42:43;;;;;;;;;;;22.80;59.40;;;;;;5034445;28;20491;-59
2022/06/18 01:45:17;;;;;;;2.05;1.95;;;22.80;59.30;;;;;;5050553;28;19925;-57
2022/06/18 01:47:51;;;;;;;2.50;2.30;;;22.70;59.40;;;;;;5048023;28;20101;-57
2022/06/18 01:50:22;;;;;;;2.83;2.35;;;22.80;59.40;;;;;;5051065;28;20055;-57
2022/06/18 01:52:55;;;;;;;2.13;2.00;;;22.80;59.40;;;;;;5051736;28;20039;-59
2022/06/18 01:55:38;;;;;;;2.22;2.13;;;22.80;59.40;;;;;;5033856;28;20029;-59
2022/06/18 01:58:10;;;;;;;2.33;2.17;;;22.80;59.40;;;;;;5052047;28;20041;-59
2022/06/18 02:00:35;;;;;;;2.60;2.40;;;22.80;59.40;;;;;;5049270;28;20047;-57
2022/06/18 02:03:03;;;;;;;2.40;2.20;;;22.80;59.40;;;;;;5050851;28;20043;-58
2022/06/18 02:05:29;;;;;;;2.10;2.00;;;22.80;59.40;;;;;;5034375;28;20041;-57
2022/06/18 02:07:55;;;;;;;2.45;2.05;;;22.80;59.50;;;;;;5052048;28;20119;-60
2022/06/18 02:10:40;;;;;;;2.20;2.00;;;22.80;59.40;;;;;;5049345;28;20726;-59
2022/06/18 02:13:07;;;;;;;2.40;2.15;;;22.80;59.30;;;;;;5050247;28;20073;-58
2022/06/18 02:15:37;;;;;;;2.42;2.17;;;22.80;59.30;;;;;;5049772;28;20079;-58
2022/06/18 02:18:06;;;;;;;2.35;2.15;;;22.80;59.30;;;;;;5050214;28;20544;-58
2022/06/18 02:20:39;;;;;;;2.20;2.10;;;22.80;59.40;;;;;;5050888;28;20379;-58
2022/06/18 02:23:04;;;;;;;2.72;2.50;;;22.80;59.30;;;;;;5032780;28;20060;-61
2022/06/18 02:25:31;;;;;;;2.50;2.30;;;22.80;59.30;;;;;;5050945;28;20044;-57
2022/06/18 02:28:34;;;;;;;2.78;2.58;;;22.80;59.30;;;;;;5051199;28;20742;-60
2022/06/18 02:31:02;;;;;;;2.17;1.95;;;22.80;59.30;;;;;;5034690;28;20063;-60
2022/06/18 02:33:39;;;;;;;2.60;2.40;;;22.80;60.00;;;;;;5049639;28;20059;-58
2022/06/18 02:36:16;;;;;;;2.60;2.40;;;22.80;59.30;;;;;;5048737;28;20296;-59
2022/06/18 02:38:43;;;;;;;3.00;2.30;;;22.80;59.40;;;;;;5033795;28;20055;-60
2022/06/18 02:41:10;;;;;;;2.40;2.17;;;22.70;59.30;;;;;;5049732;28;20056;-60
2022/06/18 02:43:36;;;;;;;2.45;2.25;;;22.70;59.20;;;;;;5032509;28;20055;-59
2022/06/18 02:46:03;;;;;;;2.40;2.20;;;22.70;59.20;;;;;;5049667;28;20037;-58
2022/06/18 02:48:31;;;;;;;2.53;2.33;;;22.80;59.30;;;;;;5049700;28;20124;-57
2022/06/18 02:50:58;;;;;;;2.20;2.10;;;22.70;59.20;;;;;;5050763;28;20041;-60
2022/06/18 02:53:25;;;;;;;2.35;2.15;;;22.80;59.30;;;;;;5049930;28;20434;-59
2022/06/18 02:55:54;;;;;;;2.38;2.03;;;22.80;59.30;;;;;;5033974;28;20049;-61
2022/06/18 02:58:27;;;;;;;2.72;2.20;;;22.80;59.30;;;;;;5050344;28;20040;-56
2022/06/18 03:01:03;;;;;;;2.10;2.00;;;22.80;59.30;;;;;;5050134;28;20335;-58
2022/06/18 03:03:33;;;;;;;2.33;2.20;;;22.80;59.30;;;;;;5048408;28;20062;-60
2022/06/18 03:05:58;;;;;;;2.60;2.40;;;22.70;59.40;;;;;;5031653;28;20059;-58
2022/06/18 03:08:26;;;;;;;2.80;2.10;;;22.70;59.40;;;;;;5050676;28;20033;-59
2022/06/18 03:13:37;;;;;;;2.40;2.20;;;22.70;59.40;;;;;;5050045;28;20092;-58
2022/06/18 03:16:06;;;;;;;2.65;2.45;;;22.70;59.40;;;;;;5048514;28;20064;-58
2022/06/18 03:18:32;;;;;;;2.97;2.10;;;22.70;59.40;;;;;;5047900;28;20044;-58
2022/06/18 03:21:04;;;;;;;2.65;2.38;;;22.70;59.40;;;;;;5051073;28;20047;-59
2022/06/18 03:23:30;;;;;;;2.65;2.45;;;22.80;59.40;;;;;;5047118;28;20103;-56
2022/06/18 03:25:56;;;;;;;2.63;2.42;;;22.70;59.30;;;;;;5049193;28;20040;-58
2022/06/18 03:28:23;;;;;;;2.75;2.53;;;22.80;59.40;;;;;;5049206;28;21154;-58
2022/06/18 03:30:49;;;;;;;2.95;2.28;;;22.70;59.30;;;;;;5050730;28;20520;-58
2022/06/18 03:33:14;;;;;;;2.50;2.30;;;22.70;59.30;;;;;;5049359;28;20039;-58
2022/06/18 03:35:44;;;;;;;2.67;2.47;;;22.80;59.40;;;;;;5034888;28;20040;-57
2022/06/18 03:38:10;;;;;;;2.22;2.03;;;22.80;59.40;;;;;;5051163;28;21339;-57
2022/06/18 03:40:36;;;;;;;2.35;2.15;;;22.70;59.30;;;;;;5048341;28;20040;-61
2022/06/18 03:43:02;;;;;;;2.40;2.20;;;22.70;59.30;;;;;;5047671;28;20777;-61
2022/06/18 03:45:30;;;;;;;2.60;2.40;;;22.70;59.30;;;;;;5036703;28;20045;-61
2022/06/18 03:47:56;;;;;;;2.47;2.28;;;22.70;59.30;;;;;;5047439;28;20029;-57
2022/06/18 03:50:21;;;;;;;2.55;2.40;;;22.70;59.30;;;;;;5050122;28;20041;-57
2022/06/18 03:52:48;;;;;;;4.18;2.30;;;22.70;59.30;;;;;;5055067;28;20043;-60
2022/06/18 03:55:16;;;;;;;2.90;2.55;;;22.70;59.30;;;;;;5055318;28;20036;-56
2022/06/18 03:57:42;;;;;;;3.63;2.58;;;22.70;59.40;;;;;;5054428;28;20106;-59
2022/06/18 04:00:13;;;;;;;2.50;2.30;;;22.70;59.30;;;;;;5052480;28;20068;-58
2022/06/18 04:02:39;;;;;;;2.72;2.45;;;22.80;59.40;;;;;;5053248;28;20110;-58
2022/06/18 04:05:04;;;;;;;2.65;2.45;;;22.70;59.20;;;;;;5054970;28;20671;-57
2022/06/18 04:07:30;;;;;;;2.40;2.20;;;22.80;59.30;;;;;;5054031;28;20071;-58
2022/06/18 04:09:56;;;;;;;2.35;2.15;;;22.70;59.20;;;;;;5053022;28;20067;-57
2022/06/18 04:12:22;;;;;;;2.78;2.58;;;22.70;59.20;;;;;;5051593;28;20033;-60
2022/06/18 04:14:48;;;;;;;2.40;2.20;;;22.70;59.20;;;;;;5052689;28;20044;-58
2022/06/18 04:17:15;;;;;;;2.72;2.53;;;22.70;59.20;;;;;;5035161;28;20179;-59
2022/06/18 04:19:42;;;;;;;2.60;2.40;;;22.70;59.20;;;;;;5051859;28;20043;-60
2022/06/18 04:22:08;;;;;;;2.60;2.40;;;22.70;59.20;;;;;;5053439;28;20048;-58
2022/06/18 04:24:34;;;;;;;2.60;2.40;;;22.70;59.20;;;;;;5051431;28;20053;-61
2022/06/18 04:27:00;;;;;;;2.60;2.40;;;22.70;59.20;;;;;;5051958;28;20408;-57
2022/06/18 04:29:27;;;;;;;2.70;2.50;;;22.80;59.30;;;;;;5051471;28;21023;-58
2022/06/18 04:31:54;;;;;;;3.00;2.38;;;22.70;59.20;;;;;;5052055;28;20041;-59
2022/06/18 04:34:20;;;;;;;2.67;2.47;;;22.80;59.30;;;;;;5051725;28;20362;-59
2022/06/18 04:36:46;;;;;;;2.50;2.30;;;22.70;59.20;;;;;;5048056;28;20057;-59
2022/06/18 04:39:13;;;;;;;2.70;2.50;;;22.70;59.20;;;;;;5031968;28;20682;-60
2022/06/18 04:41:38;;;;;;;2.67;2.47;;;22.70;59.20;;;;;;5049529;28;20053;-58
2022/06/18 04:44:04;;;;;;;2.78;2.58;;;22.70;59.20;;;;;;5049177;28;20045;-57
2022/06/18 04:46:30;;;;;;;2.85;2.58;;;22.70;59.20;;;;;;5035632;28;20041;-58
2022/06/18 04:48:56;;;;;;;2.65;2.45;;;22.70;59.20;;;;;;5051976;28;20033;-57
2022/06/18 04:51:22;;;;;;;2.55;2.35;;;22.70;59.20;;;;;;5051198;28;20049;-58
2022/06/18 04:53:48;;;;;;;2.88;2.60;;;22.70;59.20;;;;;;5051607;28;20042;-58
2022/06/18 04:56:14;;;;;;;2.58;2.38;;;22.70;59.20;;;;;;5051602;28;20035;-57
2022/06/18 04:58:40;;;;;;;2.80;2.60;;;22.70;59.20;;;;;;5050907;28;22111;-57
2022/06/18 05:01:06;;;;;;;2.80;2.60;;;22.70;59.20;;;;;;5049837;28;20041;-60
2022/06/18 05:03:32;;;;;;;2.88;2.67;;;22.70;59.20;;;;;;5050246;28;21193;-60
2022/06/18 05:05:58;;;;;;;2.67;2.50;;;22.70;59.20;;;;;;5034883;28;20048;-61
2022/06/18 05:08:25;;;;;;;2.63;2.42;;;22.70;59.30;;;;;;5051230;28;20164;-60
2022/06/18 05:10:52;;;;;;;2.70;2.60;;;22.70;59.30;;;;;;5052501;28;20044;-58
2022/06/18 05:13:18;;;;;;;2.90;2.70;;;22.70;59.30;;;;;;5051485;28;20103;-61
2022/06/18 05:15:45;;;;;;;2.80;2.55;;;22.70;59.30;;;;;;5051841;28;20040;-59
2022/06/18 05:18:14;;;;;;;2.70;2.50;;;22.70;59.30;;;;;;5051268;28;20040;-59
2022/06/18 05:20:39;;;;;;;3.15;2.85;;;22.70;59.40;;;;;;5052233;28;20044;-58
2022/06/18 05:23:05;;;;;;;2.78;2.58;;;22.70;59.40;;;;;;5050879;28;20052;-60
2022/06/18 05:25:31;;;;;;;3.03;2.80;;;22.70;59.40;;;;;;5051586;28;20055;-60
2022/06/18 05:27:57;;;;;;;2.78;2.58;;;22.70;59.40;;;;;;5051291;28;20092;-59
2022/06/18 05:30:25;;;;;;;2.80;2.60;;;22.70;59.40;;;;;;5051505;28;20033;-61
2022/06/18 05:32:51;;;;;;;4.25;2.80;;;22.70;59.40;;;;;;5050967;28;20413;-57
2022/06/18 05:35:17;;;;;;;3.28;2.97;;;22.70;59.40;;;;;;5052195;28;20090;-60
2022/06/18 05:37:44;;;;;;;3.72;3.03;;;22.70;59.60;;;;;;5051418;28;20469;-58
2022/06/18 05:40:12;;;;;;;3.10;2.80;;;22.70;59.80;;;;;;5050092;28;20493;-57
2022/06/18 05:42:38;;;;;;;4.50;3.40;;;22.70;59.90;;;;;;5048842;28;20578;-57
2022/06/18 05:45:05;;;;;;;3.15;2.85;;;22.70;60.00;;;;;;5050389;28;20045;-58
2022/06/18 05:47:32;;;;;;;4.05;3.05;;;22.70;60.00;;;;;;5051510;28;20050;-58
2022/06/18 05:49:59;;;;;;;6.13;3.80;;;22.70;60.00;;;;;;5051692;28;20052;-57
2022/06/18 05:52:26;;;;;;;6.70;3.75;;;22.70;60.40;;;;;;5049090;28;20044;-58
2022/06/18 05:54:52;;;;;;;8.13;5.07;;;22.70;60.60;;;;;;5049178;28;20472;-57
2022/06/18 05:57:19;;;;;;;5.82;5.00;;;22.70;61.10;;;;;;5051719;28;20040;-59
2022/06/18 05:59:46;;;;;;;7.50;5.03;;;22.80;61.30;;;;;;5049994;28;22206;-58
2022/06/18 06:02:13;;;;;;;7.50;4.40;;;22.70;61.30;;;;;;5049548;28;20044;-59
2022/06/18 06:04:39;;;;;;;6.07;4.63;;;22.80;61.50;;;;;;5049167;28;20056;-57
2022/06/18 06:07:16;;;;;;;7.18;4.80;;;22.70;61.50;;;;;;5052290;28;20072;-56
2022/06/18 06:12:26;;;;;;;10.13;5.25;;;22.70;61.70;;;;;;5050507;28;20141;-58
2022/06/18 06:14:51;;;;;;;7.47;5.60;;;22.80;62.00;;;;;;5049949;28;20163;-57
2022/06/18 06:17:21;;;;;;;8.23;5.90;;;22.80;62.10;;;;;;5034063;28;20043;-59
2022/06/18 06:19:48;;;;;;;11.98;7.03;;;22.80;62.40;;;;;;5049390;28;22079;-57
2022/06/18 06:22:13;;;;;;;8.00;6.13;;;22.80;62.70;;;;;;5049521;28;20495;-57
2022/06/18 06:24:39;;;;;;;10.95;6.28;;;22.80;62.90;;;;;;5033459;28;20040;-56
2022/06/18 06:27:05;;;;;;;9.27;6.28;;;22.80;62.90;;;;;;5050764;28;20048;-59
2022/06/18 06:29:31;;;;;;;7.43;5.90;;;22.80;62.90;;;;;;5050967;28;20132;-57
2022/06/18 06:31:57;;;;;;;9.27;6.30;;;22.80;63.00;;;;;;5049118;28;20075;-59
2022/06/18 06:34:22;;;;;;;16.95;6.75;;;22.80;63.10;;;;;;5050198;28;20676;-57
2022/06/18 06:36:48;;;;;;;13.25;6.93;;;22.80;63.40;;;;;;5050564;28;20040;-59
2022/06/18 06:39:14;;;;;;;15.25;8.52;;;22.80;64.00;;;;;;5052417;28;20068;-60
2022/06/18 06:41:40;;;;;;;11.50;7.38;;;22.80;64.30;;;;;;5049928;28;20051;-57
2022/06/18 06:44:06;;;;;;;13.60;7.60;;;22.80;64.60;;;;;;5051280;28;20067;-59
2022/06/18 06:46:32;;;;;;;13.93;7.70;;;22.80;64.80;;;;;;5051665;28;20910;-59
2022/06/18 06:48:58;;;;;;;13.82;8.13;;;22.80;64.80;;;;;;5048489;28;20826;-60
2022/06/18 06:51:27;;;;;;;11.75;7.45;;;22.80;64.90;;;;;;5047026;28;20171;-56
2022/06/18 06:53:52;;;;;;;13.52;8.43;;;22.80;65.00;;;;;;5048640;28;20458;-59
2022/06/18 06:59:06;;;;;;;11.98;7.57;;;22.80;65.10;;;;;;5049871;28;20052;-58
2022/06/18 07:01:34;;;;;;;11.63;7.93;;;22.80;65.10;;;;;;5049727;28;20392;-58
2022/06/18 07:04:00;;;;;;;14.18;8.02;;;22.80;65.10;;;;;;5050126;28;20095;-60
2022/06/18 07:06:26;;;;;;;9.43;7.25;;;22.80;65.80;;;;;;5048864;28;20061;-57
2022/06/18 07:08:52;;;;;;;11.90;7.47;;;22.80;65.10;;;;;;5048828;28;20553;-57
2022/06/18 07:11:17;;;;;;;11.38;8.13;;;22.80;65.10;;;;;;5050555;28;20344;-60
2022/06/18 07:13:43;;;;;;;11.57;7.20;;;22.80;65.30;;;;;;5049847;28;20036;-58
2022/06/18 07:16:11;;;;;;;10.95;7.10;;;22.80;65.40;;;;;;5048632;28;20029;-59
2022/06/18 07:18:37;;;;;;;15.35;7.95;;;22.80;65.40;;;;;;5049111;28;20075;-58
2022/06/18 07:21:06;;;;;;;13.50;7.57;;;22.80;65.50;;;;;;5049926;28;20728;-57
2022/06/18 07:23:32;;;;;;;12.95;7.40;;;22.80;65.50;;;;;;5047889;28;20044;-59
2022/06/18 07:25:58;;;;;;;10.65;7.43;;;22.80;65.40;;;;;;5030727;28;20114;-59
2022/06/18 07:28:24;;;;;;;9.38;7.45;;;22.80;65.40;;;;;;5046940;28;20033;-57
2022/06/18 07:30:50;;;;;;;13.13;7.30;;;22.90;65.60;;;;;;5045602;28;20079;-56
2022/06/18 07:33:22;;;;;;;12.23;7.05;;;22.90;65.60;;;;;;5045485;28;20263;-56
2022/06/18 07:35:48;;;;;;;8.93;5.88;;;22.90;65.60;;;;;;5046264;28;20166;-59
2022/06/18 07:38:14;;;;;;;12.00;6.90;;;22.90;65.50;;;;;;5047700;28;20045;-58
2022/06/18 07:40:44;;;;;;;12.52;7.28;;;22.80;65.50;;;;;;5047718;28;20047;-59
2022/06/18 07:43:30;;;;;;;12.40;6.85;;;22.90;65.70;;;;;;5047723;28;20070;-59
2022/06/18 07:45:56;;;;;;;12.02;7.15;;;22.90;65.60;;;;;;5047813;28;20036;-57
2022/06/18 07:48:22;;;;;;;14.38;6.72;;;22.90;65.60;;;;;;5029093;28;20091;-58
2022/06/18 07:50:49;;;;;;;9.73;6.40;;;22.90;65.60;;;;;;5032017;28;20045;-58
2022/06/18 07:53:20;;;;;;;11.60;6.45;;;22.90;65.50;;;;;;5047638;28;20083;-58
2022/06/18 07:55:46;;;;;;;10.73;6.28;;;22.90;65.50;;;;;;5048732;28;20044;-58
2022/06/18 07:58:12;;;;;;;11.27;5.97;;;22.90;65.40;;;;;;5048037;28;20052;-61
2022/06/18 08:00:42;;;;;;;19.40;6.50;;;22.90;65.30;;;;;;5048948;28;20041;-58
2022/06/18 08:03:10;;;;;;;9.40;6.47;;;22.90;65.20;;;;;;5047122;28;20120;-58
2022/06/18 08:05:35;;;;;;;11.07;5.25;;;22.90;65.20;;;;;;5049067;28;20476;-60
2022/06/18 08:08:01;;;;;;;10.73;5.90;;;22.90;65.20;;;;;;5048601;28;20029;-58
2022/06/18 08:10:27;;;;;;;6.32;5.53;;;22.90;65.20;;;;;;5051159;28;20963;-58
2022/06/18 08:12:53;;;;;;;9.90;5.78;;;22.90;65.30;;;;;;5048802;28;20037;-59
2022/06/18 08:15:19;;;;;;;6.22;5.60;;;22.90;65.40;;;;;;5048594;28;20037;-59
2022/06/18 08:17:45;;;;;;;12.65;5.68;;;22.90;65.30;;;;;;5049915;28;20025;-57
2022/06/18 08:20:11;;;;;;;7.25;5.40;;;22.90;65.30;;;;;;5048340;28;20134;-59
2022/06/18 08:22:40;;;;;;;8.50;5.45;;;22.90;65.40;;;;;;5049381;28;20041;-57
2022/06/18 08:25:07;;;;;;;10.15;5.55;;;22.90;65.40;;;;;;5049234;28;20044;-58
2022/06/18 08:27:33;;;;;;;7.32;5.18;;;22.90;65.40;;;;;;5049236;28;20032;-58
2022/06/18 08:29:59;;;;;;;9.68;5.22;;;22.90;65.30;;;;;;5048987;28;20099;-59
2022/06/18 08:32:25;;;;;;;7.32;5.47;;;22.90;65.30;;;;;;5047829;28;20481;-59
2022/06/18 08:34:50;;;;;;;7.47;4.93;;;22.90;65.30;;;;;;5047715;28;20032;-60
2022/06/18 08:37:16;;;;;;;10.05;5.03;;;22.90;65.30;;;;;;5049098;28;20033;-58
2022/06/18 08:39:42;;;;;;;9.05;4.72;;;22.90;65.30;;;;;;5052625;28;20705;-58
2022/06/18 08:42:26;;;;;;;9.88;4.90;;;22.90;65.20;;;;;;5051564;28;20032;-60
2022/06/18 08:45:10;;;;;;;9.32;5.05;;;22.90;65.20;;;;;;5052992;28;20044;-58
2022/06/18 08:47:58;;;;;;;7.03;5.07;;;22.90;65.20;;;;;;5052648;28;20128;-59
2022/06/18 08:50:25;;;;;;;8.07;4.50;;;22.90;65.20;;;;;;5035415;28;20440;-58
2022/06/18 08:53:16;;;;;;;6.65;4.78;;;22.90;65.10;;;;;;5053526;28;20497;-57
2022/06/18 08:55:50;;;;;;;;;;;22.90;65.00;;;;;;5037488;28;20087;-58
2022/06/18 08:58:30;;;;;;;8.98;4.53;;;22.90;64.90;;;;;;5054195;28;19925;-58
2022/06/18 09:01:07;;;;;;;6.28;4.43;;;22.90;65.00;;;;;;5053972;28;20499;-58
2022/06/18 09:04:01;;;;;;;6.93;4.50;;;22.90;64.90;;;;;;5053920;28;20457;-57
2022/06/18 09:06:38;;;;;;;6.05;4.40;;;22.90;64.80;;;;;;5053507;28;20063;-57
2022/06/18 09:09:06;;;;;;;7.07;4.38;;;22.90;64.80;;;;;;5055014;28;20434;-58
2022/06/18 09:11:58;;;;;;;7.43;4.70;;;22.90;64.70;;;;;;5054119;28;20099;-57
2022/06/18 09:14:45;;;;;;;6.25;4.20;;;22.90;64.60;;;;;;5054770;28;20037;-60
2022/06/18 09:17:39;;;;;;;5.72;4.60;;;22.90;64.50;;;;;;5041884;28;20045;-59
2022/06/18 09:20:11;;;;;;;8.02;4.68;;;22.90;64.50;;;;;;5054355;28;20032;-57
2022/06/18 09:22:45;;;;;;;5.15;4.55;;;22.90;64.70;;;;;;5053344;28;20041;-57
2022/06/18 09:25:16;;;;;;;8.38;5.00;;;22.90;64.70;;;;;;5054508;28;20131;-58
2022/06/18 09:27:54;;;;;;;;;;;22.90;64.80;;;;;;5055172;28;20140;-58
2022/06/18 09:30:34;;;;;;;8.57;5.03;;;22.90;64.90;;;;;;5051260;28;19928;-56
2022/06/18 09:33:10;;;;;;;8.10;4.82;;;22.90;64.90;;;;;;5052167;28;20986;-58
2022/06/18 09:35:39;;;;;;;13.80;5.75;;;22.90;65.00;;;;;;5054556;28;20072;-56
2022/06/18 09:38:10;;;;;;;10.65;6.03;;;22.90;65.00;;;;;;5053704;28;20055;-55
2022/06/18 09:40:47;;;;;;;9.32;5.18;;;22.90;65.00;;;;;;5051918;28;20059;-58
2022/06/18 09:43:42;;;;;;;10.40;5.47;;;23.00;65.10;;;;;;5052235;28;20084;-58
2022/06/18 09:46:26;;;;;;;8.55;4.60;;;23.00;65.10;;;;;;5052088;28;20036;-56
2022/06/18 09:48:52;;;;;;;7.35;4.57;;;23.00;65.10;;;;;;5052565;28;20051;-59
2022/06/18 09:51:45;;;;;;;8.73;4.80;;;22.90;65.20;;;;;;5051574;28;20089;-57
2022/06/18 09:54:13;;;;;;;14.20;4.72;;;23.00;65.20;;;;;;5015416;28;20052;-59
2022/06/18 09:56:49;;;;;;;7.60;4.55;;;23.00;65.40;;;;;;5051716;28;20032;-56
2022/06/18 09:59:23;;;;;;;9.43;4.60;;;23.00;65.50;;;;;;5052917;28;20041;-56
2022/06/18 10:01:55;;;;;;;7.28;4.30;;;23.00;65.60;;;;;;5050168;28;20041;-57
2022/06/18 10:07:21;;;;;;;8.20;4.32;;;23.00;65.70;;;;;;5048200;28;20067;-58
2022/06/18 10:09:59;;;;;;;8.98;3.83;;;23.00;65.80;;;;;;5052497;28;20067;-57
2022/06/18 10:12:31;;;;;;;8.10;4.95;;;23.00;65.90;;;;;;5050972;28;20028;-57
2022/06/18 10:14:59;;;;;;;7.38;5.20;;;23.10;66.00;;;;;;5052249;28;20108;-57
2022/06/18 10:17:46;;;;;;;8.95;5.40;;;23.00;66.40;;;;;;5052043;28;20040;-57
2022/06/18 10:20:19;;;;;;;8.52;5.05;;;23.10;66.60;;;;;;5048267;28;20044;-60
2022/06/18 10:23:21;;;;;;;8.50;4.75;;;23.10;66.90;;;;;;5053802;28;20036;-56
2022/06/18 10:26:01;;;;;;;7.35;4.00;;;23.10;67.30;;;;;;5042373;28;20056;-56
2022/06/18 10:28:31;;;;;;;8.07;4.55;;;23.10;67.10;;;;;;5050131;28;20053;-57
2022/06/18 10:31:02;;;;;;;;;;;23.10;67.40;;;;;;5051814;28;20028;-58
2022/06/18 10:34:02;;;;;;;6.00;4.22;;;23.10;68.00;;;;;;5052019;28;19921;-57
2022/06/18 10:36:37;;;;;;;7.57;5.00;;;23.10;67.70;;;;;;5052796;28;20041;-58
2022/06/18 10:39:10;;;;;;;8.52;4.18;;;23.10;67.90;;;;;;5053513;28;20056;-57
2022/06/18 10:41:57;;;;;;;7.88;3.92;;;23.10;67.90;;;;;;5055530;28;20045;-57
2022/06/18 10:44:52;;;;;;;6.75;3.40;;;23.10;67.90;;;;;;5053943;28;20053;-59
2022/06/18 10:47:18;;;;;;;5.07;3.38;;;23.10;67.80;;;;;;5032748;28;20059;-58
2022/06/18 10:49:58;;;;;;;5.13;3.10;;;23.10;67.80;;;;;;5052004;28;20680;-57
2022/06/18 10:52:25;;;;;;;4.30;3.40;;;23.10;67.80;;;;;;5052949;28;20071;-58
2022/06/18 10:55:04;;;;;;;5.32;3.28;;;23.10;67.80;;;;;;5054498;28;20040;-58
2022/06/18 10:57:30;;;;;;;7.77;3.67;;;23.10;67.70;;;;;;5051978;28;20044;-56
2022/06/18 10:59:56;;;;;;;8.40;3.47;;;23.10;67.60;;;;;;5050026;28;20799;-58
2022/06/18 11:02:43;;;;;;;7.72;3.15;;;23.10;67.60;;;;;;5051153;28;20079;-59
2022/06/18 11:05:36;;;;;;;5.63;3.50;;;23.20;67.60;;;;;;5047051;28;20040;-57
2022/06/18 11:08:29;;;;;;;8.38;3.08;;;23.20;67.60;;;;;;5048784;28;20752;-58
2022/06/18 11:11:01;;;;;;;5.13;3.50;;;23.10;67.50;;;;;;5051028;28;20072;-57
2022/06/18 11:13:35;;;;;;;8.52;3.30;;;23.10;67.60;;;;;;5040448;28;20067;-57
2022/06/18 11:16:25;;;;;;;3.88;2.97;;;23.20;67.70;;;;;;5050216;28;20468;-57
2022/06/18 11:19:02;;;;;;;7.77;3.40;;;23.20;67.70;;;;;;5039762;28;20094;-57
2022/06/18 11:21:43;;;;;;;5.80;3.15;;;23.20;67.70;;;;;;5052179;28;20120;-60
2022/06/18 11:24:12;;;;;;;5.15;3.40;;;23.20;67.70;;;;;;5052963;28;20060;-57
2022/06/18 11:26:43;;;;;;;7.93;3.53;;;23.20;67.80;;;;;;5051266;28;20076;-59
2022/06/18 11:29:33;;;;;;;7.78;3.10;;;23.20;67.90;;;;;;5052355;28;20048;-57
2022/06/18 11:32:05;;;;;;;7.55;3.58;;;23.20;67.90;;;;;;5042517;28;20482;-57
2022/06/18 11:34:37;;;;;;;7.45;2.72;;;23.20;67.90;;;;;;5049908;28;20041;-57
2022/06/18 11:37:19;;;;;;;4.82;3.17;;;23.20;67.80;;;;;;5051299;28;20048;-60
2022/06/18 11:40:15;;;;;;;5.80;3.05;;;23.20;67.80;;;;;;5051978;28;20084;-59
2022/06/18 11:43:04;;;;;;;5.28;2.72;;;23.20;67.90;;;;;;5050811;28;20132;-58
2022/06/18 11:45:36;;;;;;;5.45;3.35;;;23.20;67.90;;;;;;5041328;28;20048;-58
2022/06/18 11:48:21;;;;;;;5.45;3.00;;;23.20;67.80;;;;;;5052974;28;20479;-58
2022/06/18 11:51:11;;;;;;;7.63;3.08;;;23.20;67.70;;;;;;5031761;28;20392;-59
2022/06/18 11:53:53;;;;;;;5.15;3.28;;;23.20;67.70;;;;;;5051495;28;20072;-59
2022/06/18 11:56:37;;;;;;;7.15;3.00;;;23.20;67.70;;;;;;5047274;28;20675;-59
2022/06/18 11:59:15;;;;;;;7.07;3.13;;;23.20;67.70;;;;;;5048770;28;20068;-58
2022/06/18 12:02:04;;;;;;;6.03;2.90;;;23.20;67.60;;;;;;5050557;28;20047;-58
2022/06/18 12:04:41;;;;;;;6.88;3.00;;;23.20;67.50;;;;;;5052185;28;20159;-58
2022/06/18 12:07:30;;;;;;;4.57;3.28;;;23.20;67.60;;;;;;5050415;28;20116;-58
2022/06/18 12:09:56;;;;;;;6.50;3.10;;;23.20;67.40;;;;;;5052615;28;20124;-59
2022/06/18 12:12:33;;;;;;;5.25;3.20;;;23.20;67.50;;;;;;5051454;28;20140;-58
2022/06/18 12:15:21;;;;;;;4.40;2.80;;;23.20;67.40;;;;;;5054610;28;20183;-58
2022/06/18 12:18:12;;;;;;;6.05;3.10;;;23.20;67.30;;;;;;5055685;28;20108;-57
2022/06/18 12:21:03;;;;;;;3.30;2.40;;;23.20;67.30;;;;;;5050211;28;20048;-58
2022/06/18 12:23:39;;;;;;;;;;;23.20;67.20;;;;;;5047198;28;20063;-59
2022/06/18 12:26:33;;;;;;;4.75;2.65;;;23.20;67.30;;;;;;5053625;28;19920;-59
2022/06/18 12:29:17;;;;;;;4.80;2.60;;;23.20;67.40;;;;;;5055831;28;20075;-59
2022/06/18 12:32:18;;;;;;;5.15;2.60;;;23.20;67.30;;;;;;5037738;28;20051;-59
2022/06/18 12:35:02;;;;;;;;;;;23.20;67.20;;;;;;5051649;28;20045;-61
2022/06/18 12:37:53;;;;;;;4.57;2.70;;;23.20;67.10;;;;;;5046781;28;19920;-59
2022/06/18 12:40:35;;;;;;;4.57;2.65;;;23.20;68.30;;;;;;5054049;28;20048;-60
2022/06/18 12:43:22;;;;;;;5.10;2.58;;;23.20;68.20;;;;;;5052897;28;20412;-57
2022/06/18 12:45:56;;;;;;;3.15;2.60;;;23.20;68.40;;;;;;5052065;28;21911;-59
2022/06/18 12:48:28;;;;;;;3.03;2.72;;;23.20;68.80;;;;;;5052057;28;20960;-58
2022/06/18 12:51:05;;;;;;;4.47;2.90;;;23.30;68.90;;;;;;5051665;28;20044;-57
2022/06/18 12:53:48;;;;;;;4.97;2.67;;;23.30;68.70;;;;;;5051134;28;20032;-58
2022/06/18 12:56:32;;;;;;;6.82;3.20;;;23.30;68.50;;;;;;5053745;28;20036;-57
2022/06/18 12:59:06;;;;;;;4.40;3.30;;;23.30;69.10;;;;;;5053167;28;20101;-60
2022/06/18 13:01:59;;;;;;;4.35;3.17;;;23.30;69.10;;;;;;5038028;28;20052;-59
2022/06/18 13:04:51;;;;;;;4.30;2.80;;;23.30;69.30;;;;;;5050442;28;20389;-58
2022/06/18 13:07:32;;;;;;;5.80;3.15;;;23.30;69.40;;;;;;5051613;28;20045;-57
2022/06/18 13:10:25;;;;;;;4.70;3.30;;;23.30;69.60;;;;;;5052149;28;21087;-58
2022/06/18 13:13:01;;;;;;;5.50;2.97;;;23.30;69.40;;;;;;5052301;28;20278;-58
2022/06/18 13:16:04;;;;;;;8.65;3.00;;;23.30;69.40;;;;;;5052576;28;20036;-58
2022/06/18 13:18:40;;;;;;;4.20;2.80;;;23.40;69.70;;;;;;5043620;28;20524;-57
2022/06/18 13:21:09;;;;;;;7.13;3.40;;;23.30;69.50;;;;;;5056904;28;20388;-58
2022/06/18 13:29:27;;;;;;;5.93;2.75;;;23.40;68.90;;;;;;5053423;28;20087;-58
2022/06/18 13:32:28;;;;;;;6.05;3.40;;;23.40;68.90;;;;;;5052649;28;20462;-58
2022/06/18 13:35:04;;;;;;;4.07;2.60;;;23.40;68.90;;;;;;5057372;28;20446;-59